Time;durP1;ratioP1;P1;durP2;ratioP2;P2;SDS_P1;SDS_P2;PMS_P1;PMS_P2;Temp;Humidity;BMP_temperature;BMP_pressure;BME280_temperature;BME280_humidity;BME280_pressure;Samples;Min_cycle;Max_cycle;Signal;HPM_P1;HPM_P2
2023/09/13 00:01:15;;;;;;;33.70;21.10;;;;;;;19.23;100.00;101100.81;5002933;28;20046;-77
2023/09/13 00:03:43;;;;;;;35.28;21.50;;;;;;;19.20;100.00;101095.66;5007864;28;20042;-77
2023/09/13 00:06:10;;;;;;;35.20;21.23;;;;;;;19.18;100.00;101097.56;5006836;28;20653;-77
2023/09/13 00:08:37;;;;;;;34.17;20.90;;;;;;;19.19;100.00;101099.28;5008421;28;20096;-76
2023/09/13 00:11:05;;;;;;;35.60;22.88;;;;;;;19.20;100.00;101101.00;5007462;28;20045;-76
2023/09/13 00:13:33;;;;;;;37.05;22.33;;;;;;;19.21;100.00;101097.38;5005624;28;20096;-76
2023/09/13 00:16:02;;;;;;;40.60;24.33;;;;;;;19.23;100.00;101099.94;4989124;28;20053;-76
2023/09/13 00:18:29;;;;;;;38.25;24.40;;;;;;;19.21;100.00;101101.88;5006232;28;20037;-76
2023/09/13 00:20:56;;;;;;;39.47;23.75;;;;;;;19.20;100.00;101101.00;5006668;28;20042;-77
2023/09/13 00:23:23;;;;;;;42.47;25.23;;;;;;;19.20;100.00;101105.50;5005269;28;20046;-77
2023/09/13 00:25:50;;;;;;;43.30;24.70;;;;;;;19.21;100.00;101101.88;5008427;28;20534;-77
2023/09/13 00:28:17;;;;;;;42.55;25.08;;;;;;;19.21;100.00;101097.38;5005727;28;20175;-77
2023/09/13 00:30:44;;;;;;;42.47;25.23;;;;;;;19.23;100.00;101102.63;5004713;28;20049;-77
2023/09/13 00:33:12;;;;;;;37.45;24.50;;;;;;;19.23;100.00;101099.94;5003904;28;20049;-77
2023/09/13 00:35:39;;;;;;;40.13;24.70;;;;;;;19.21;100.00;101102.72;5006648;28;20076;-77
2023/09/13 00:38:07;;;;;;;32.70;22.88;;;;;;;19.23;100.00;101102.63;5004734;28;20045;-78
2023/09/13 00:40:34;;;;;;;36.22;22.98;;;;;;;19.26;100.00;101104.25;5002556;28;20041;-77
2023/09/13 00:43:01;;;;;;;41.63;23.98;;;;;;;19.26;100.00;101107.78;5006081;28;21360;-77
2023/09/13 00:45:33;;;;;;;39.28;24.52;;;;;;;19.26;100.00;101109.59;5035476;28;20133;-77
2023/09/13 00:48:01;;;;;;;39.95;24.98;;;;;;;19.24;100.00;101099.88;5003629;28;20044;-76
2023/09/13 00:50:29;;;;;;;37.08;23.85;;;;;;;19.26;100.00;101106.94;5004638;28;20144;-76
2023/09/13 00:53:18;;;;;;;36.83;22.73;;;;;;;19.30;100.00;101105.75;5006407;28;20038;-77
2023/09/13 00:55:49;;;;;;;36.75;21.73;;;;;;;19.25;100.00;101111.41;5004147;28;20050;-76
2023/09/13 00:58:18;;;;;;;37.15;21.60;;;;;;;19.20;100.00;101118.88;4989015;28;20046;-75
2023/09/13 01:00:53;;;;;;;37.10;22.48;;;;;;;19.16;100.00;101107.50;5002469;28;20738;-76
2023/09/13 01:03:23;;;;;;;31.98;23.45;;;;;;;19.14;100.00;101121.91;5000564;28;20096;-75
2023/09/13 01:05:54;;;;;;;40.38;23.33;;;;;;;19.14;100.00;101125.44;5000735;28;20124;-76
2023/09/13 01:08:22;;;;;;;37.28;23.35;;;;;;;19.17;100.00;101119.91;5006326;28;20123;-76
2023/09/13 01:10:49;;;;;;;37.70;23.95;;;;;;;19.18;100.00;101118.94;5004785;28;20033;-75
2023/09/13 01:13:16;;;;;;;41.47;24.98;;;;;;;19.17;100.00;101109.22;5005086;28;20445;-76
2023/09/13 01:16:03;;;;;;;39.40;25.02;;;;;;;19.17;100.00;101109.22;5004453;28;20042;-76
2023/09/13 01:18:45;;;;;;;42.88;24.70;;;;;;;19.19;100.00;101120.66;5000728;28;20041;-75
2023/09/13 01:21:53;;;;;;;40.60;25.63;;;;;;;19.20;100.00;101113.53;5004704;28;20052;-75
2023/09/13 01:25:03;;;;;;;39.67;24.65;;;;;;;19.25;100.00;101114.06;5005242;28;20119;-75
2023/09/13 01:28:35;;;;;;;42.97;25.27;;;;;;;19.29;100.00;101117.41;4996819;28;20034;-75
2023/09/13 01:31:06;;;;;;;42.70;26.10;;;;;;;19.26;100.00;101115.78;4994090;28;20088;-75
2023/09/13 01:33:34;;;;;;;40.35;26.10;;;;;;;19.29;100.00;101117.41;5015322;28;20058;-75
2023/09/13 01:36:02;;;;;;;39.15;24.75;;;;;;;19.34;100.00;101126.00;5035483;28;20041;-75
2023/09/13 01:38:30;;;;;;;33.38;23.38;;;;;;;19.36;100.00;101121.44;5003170;28;21078;-75
2023/09/13 01:41:10;;;;;;;37.88;25.00;;;;;;;19.38;100.00;101122.22;5004082;28;20077;-75
2023/09/13 01:43:41;;;;;;;33.45;23.33;;;;;;;19.34;100.00;101126.00;5003257;28;20053;-75
2023/09/13 01:46:12;;;;;;;31.23;22.83;;;;;;;19.34;100.00;101120.66;5002663;28;20045;-75
2023/09/13 01:48:41;;;;;;;34.25;22.95;;;;;;;19.34;100.00;101126.84;5002908;28;20042;-75
2023/09/13 01:51:10;;;;;;;36.78;23.67;;;;;;;19.36;100.00;101129.44;4999389;28;20192;-74
2023/09/13 01:53:45;;;;;;;38.55;22.85;;;;;;;19.35;100.00;101127.72;5005260;28;20119;-75
2023/09/13 01:56:12;;;;;;;33.20;24.00;;;;;;;19.32;100.00;101128.78;5006287;28;20511;-75
2023/09/13 01:58:39;;;;;;;32.92;23.55;;;;;;;19.31;100.00;101143.09;5004083;28;20058;-75
2023/09/13 02:01:07;;;;;;;33.03;22.73;;;;;;;19.31;100.00;101136.88;5000644;28;20038;-75
2023/09/13 02:03:34;;;;;;;31.77;21.95;;;;;;;19.29;100.00;101126.31;5003602;28;20057;-75
2023/09/13 02:06:01;;;;;;;33.17;22.15;;;;;;;19.29;100.00;101134.31;4996837;28;20132;-75
2023/09/13 02:08:28;;;;;;;30.63;22.38;;;;;;;19.26;100.00;101129.16;5005342;28;20042;-75
2023/09/13 02:10:55;;;;;;;32.95;23.27;;;;;;;19.22;100.00;101133.84;5004253;28;20049;-75
2023/09/13 02:13:22;;;;;;;32.10;23.20;;;;;;;19.22;100.00;101130.31;5004952;28;20046;-75
2023/09/13 02:15:49;;;;;;;31.98;22.35;;;;;;;19.21;100.00;101145.47;5019172;28;20049;-75
2023/09/13 02:18:17;;;;;;;30.63;22.38;;;;;;;19.21;100.00;101153.50;5003031;28;20049;-75
2023/09/13 02:20:44;;;;;;;34.00;23.35;;;;;;;19.21;100.00;101145.47;5004138;28;20103;-74
2023/09/13 02:23:11;;;;;;;33.50;23.70;;;;;;;19.17;100.00;101152.00;5020015;28;20056;-75
2023/09/13 02:25:40;;;;;;;33.17;23.52;;;;;;;19.17;100.00;101149.31;5004517;28;20541;-75
2023/09/13 02:28:07;;;;;;;34.53;23.77;;;;;;;19.17;100.00;101152.00;5004294;28;20052;-75
2023/09/13 02:30:34;;;;;;;38.92;25.20;;;;;;;19.16;100.00;101150.25;5004388;28;20046;-75
2023/09/13 02:33:02;;;;;;;40.42;26.02;;;;;;;19.17;100.00;101152.00;5017351;28;20045;-75
2023/09/13 02:35:31;;;;;;;38.15;25.52;;;;;;;19.13;100.00;101150.44;4997589;28;20099;-75
2023/09/13 02:38:01;;;;;;;38.17;24.13;;;;;;;19.15;100.00;101153.88;5004636;28;20505;-75
2023/09/13 02:40:29;;;;;;;40.03;26.58;;;;;;;19.19;100.00;101146.53;5005380;28;20125;-75
2023/09/13 02:42:56;;;;;;;43.03;28.45;;;;;;;19.19;100.00;101149.22;5003728;28;20312;-75
2023/09/13 02:45:23;;;;;;;46.38;28.17;;;;;;;19.12;100.00;101148.72;4988308;28;20092;-77
2023/09/13 02:47:50;;;;;;;50.25;29.25;;;;;;;19.08;100.00;101153.41;5002974;28;20524;-76
2023/09/13 02:50:17;;;;;;;43.88;28.25;;;;;;;19.09;100.00;101159.59;5002090;28;20057;-75
2023/09/13 02:52:44;;;;;;;42.78;27.65;;;;;;;19.09;100.00;101162.25;5003210;28;20044;-76
2023/09/13 02:55:11;;;;;;;48.60;29.38;;;;;;;19.10;100.00;101155.97;5002823;28;20042;-76
2023/09/13 02:57:38;;;;;;;46.92;29.65;;;;;;;19.13;100.00;101170.97;5001786;28;20050;-76
2023/09/13 03:00:06;;;;;;;52.67;29.95;;;;;;;19.06;100.00;101154.47;5002002;28;20041;-76
2023/09/13 03:02:38;;;;;;;45.63;28.45;;;;;;;19.02;100.00;101166.28;5002600;28;20045;-76
2023/09/13 03:05:06;;;;;;;42.00;29.65;;;;;;;18.96;100.00;101167.50;5004539;28;20041;-76
2023/09/13 03:07:33;;;;;;;50.58;31.52;;;;;;;18.98;100.00;101178.09;4998583;28;20129;-76
2023/09/13 03:10:01;;;;;;;50.35;30.50;;;;;;;19.00;100.00;101174.38;5016375;28;20045;-77
2023/09/13 03:12:28;;;;;;;47.42;31.95;;;;;;;19.02;100.00;101168.94;5000457;28;20042;-76
2023/09/13 03:14:58;;;;;;;48.17;30.58;;;;;;;19.03;100.00;101166.16;5020839;28;20048;-76
2023/09/13 03:17:25;;;;;;;52.08;31.65;;;;;;;19.08;100.00;101176.56;4987945;28;20054;-77
2023/09/13 03:19:53;;;;;;;48.63;30.42;;;;;;;19.08;100.00;101169.44;5021640;28;20587;-77
2023/09/13 03:22:20;;;;;;;50.60;29.50;;;;;;;19.09;100.00;101165.81;5003243;28;20138;-77
2023/09/13 03:24:47;;;;;;;50.90;31.35;;;;;;;19.11;100.00;101164.88;5010198;28;20037;-78
2023/09/13 03:27:15;;;;;;;53.60;31.83;;;;;;;19.08;100.00;101165.88;5007844;28;20493;-78
2023/09/13 03:29:42;;;;;;;55.08;32.72;;;;;;;19.07;100.00;101164.19;4998591;28;20058;-77
2023/09/13 03:32:10;;;;;;;52.50;32.33;;;;;;;19.01;100.00;101172.56;5004759;28;20052;-77
2023/09/13 03:34:37;;;;;;;55.65;32.80;;;;;;;18.95;100.00;101173.78;4988478;28;20135;-77
2023/09/13 03:37:06;;;;;;;50.47;30.73;;;;;;;18.88;100.00;101175.94;5002609;28;20038;-77
2023/09/13 03:39:34;;;;;;;54.15;33.42;;;;;;;18.85;100.00;101180.59;5002022;28;20129;-75
2023/09/13 03:42:02;;;;;;;52.08;33.25;;;;;;;18.81;100.00;101174.59;5005026;28;20045;-76
2023/09/13 03:44:30;;;;;;;57.10;32.22;;;;;;;18.75;100.00;101180.31;5004847;28;20157;-77
2023/09/13 03:46:57;;;;;;;65.82;37.05;;;;;;;18.67;100.00;101171.91;5007683;28;20128;-76
2023/09/13 03:49:24;;;;;;;65.80;35.58;;;;;;;18.61;100.00;101170.47;5006757;28;20042;-76
2023/09/13 03:51:52;;;;;;;73.00;37.90;;;;;;;18.59;100.00;101172.34;5002332;28;20100;-76
2023/09/13 03:54:20;;;;;;;81.72;41.70;;;;;;;18.60;100.00;101169.56;5000358;28;20108;-75
2023/09/13 03:56:47;;;;;;;80.05;40.92;;;;;;;18.62;100.00;101165.00;5005922;28;20096;-75
2023/09/13 03:59:14;;;;;;;78.80;43.38;;;;;;;18.64;100.00;101170.25;5007930;28;20469;-76
2023/09/13 04:01:41;;;;;;;82.40;42.92;;;;;;;18.63;100.00;101172.06;5015752;28;20049;-75
2023/09/13 04:04:08;;;;;;;82.50;44.60;;;;;;;18.62;100.00;101180.16;5005966;28;20045;-75
2023/09/13 04:06:36;;;;;;;84.88;42.05;;;;;;;18.61;100.00;101168.63;5003042;28;20076;-75
2023/09/13 04:09:03;;;;;;;73.13;41.55;;;;;;;18.59;100.00;101175.03;5004008;28;20454;-76
2023/09/13 04:11:30;;;;;;;81.20;42.28;;;;;;;18.59;100.00;101169.69;5019767;28;20061;-77
2023/09/13 04:13:57;;;;;;;82.50;41.45;;;;;;;18.57;100.00;101168.91;5006780;28;20045;-76
2023/09/13 04:16:24;;;;;;;77.53;41.55;;;;;;;18.53;100.00;101173.56;5003554;28;20691;-76
2023/09/13 04:18:52;;;;;;;77.93;42.95;;;;;;;18.49;100.00;101171.16;5020576;28;20069;-77
2023/09/13 04:21:19;;;;;;;82.97;44.00;;;;;;;18.46;100.00;101166.88;4998998;28;20042;-77
2023/09/13 04:23:46;;;;;;;83.65;44.03;;;;;;;18.43;100.00;101172.38;5001581;28;20588;-78
2023/09/13 04:26:20;;;;;;;78.15;42.10;;;;;;;18.40;100.00;101176.09;5013610;28;20044;-79
2023/09/13 04:28:47;;;;;;;81.10;45.35;;;;;;;18.37;100.00;101178.06;5022625;28;20065;-78
2023/09/13 04:31:15;;;;;;;83.32;44.55;;;;;;;18.33;100.00;101179.22;5037462;28;20061;-79
2023/09/13 04:33:51;;;;;;;83.80;42.55;;;;;;;18.30;100.00;101177.59;5004220;28;20145;-79
2023/09/13 04:36:23;;;;;;;83.70;42.75;;;;;;;18.29;100.00;101179.38;5000952;28;20045;-77
2023/09/13 04:38:51;;;;;;;85.13;44.35;;;;;;;18.30;100.00;101181.09;4996765;28;20462;-76
2023/09/13 04:41:19;;;;;;;81.13;41.67;;;;;;;18.30;100.00;101180.25;5032137;28;20121;-79
2023/09/13 04:43:46;;;;;;;80.93;42.17;;;;;;;18.28;100.00;101183.00;5003723;28;20466;-78
2023/09/13 04:46:17;;;;;;;85.10;43.85;;;;;;;18.27;100.00;101178.59;5012725;28;20069;-77
2023/09/13 04:48:44;;;;;;;91.97;44.97;;;;;;;18.28;100.00;101184.81;4998461;28;20042;-78
2023/09/13 04:51:11;;;;;;;73.35;39.35;;;;;;;18.28;100.00;101174.97;4999387;28;20526;-78
2023/09/13 04:53:39;;;;;;;80.57;39.80;;;;;;;18.35;100.00;101178.16;4997246;28;20576;-78
2023/09/13 04:56:07;;;;;;;83.75;42.58;;;;;;;18.36;100.00;101184.38;5017127;28;20077;-78
2023/09/13 04:58:40;;;;;;;86.25;43.55;;;;;;;18.30;100.00;101186.44;4984469;28;20171;-75
2023/09/13 05:01:10;;;;;;;82.47;43.20;;;;;;;18.24;100.00;101186.78;5020461;28;20753;-75
2023/09/13 05:03:37;;;;;;;85.22;43.58;;;;;;;18.21;100.00;101194.13;5031639;28;20395;-76
2023/09/13 05:06:04;;;;;;;85.93;43.47;;;;;;;18.16;100.00;101186.38;5006421;28;20050;-75
2023/09/13 05:08:37;;;;;;;78.97;41.95;;;;;;;18.11;100.00;101202.63;5000432;28;20045;-76
2023/09/13 05:11:04;;;;;;;89.40;45.55;;;;;;;18.08;100.00;101200.16;5000077;28;20132;-75
2023/09/13 05:13:32;;;;;;;80.78;43.25;;;;;;;18.09;100.00;101198.31;5031120;28;20073;-75
2023/09/13 05:15:59;;;;;;;92.55;44.60;;;;;;;18.09;100.00;101195.66;5002376;28;21083;-76
2023/09/13 05:18:27;;;;;;;90.68;46.00;;;;;;;18.13;100.00;101191.88;5013919;28;20038;-75
2023/09/13 05:20:54;;;;;;;95.03;45.78;;;;;;;18.15;100.00;101201.50;5019606;28;20045;-76
2023/09/13 05:23:21;;;;;;;98.10;46.85;;;;;;;18.17;100.00;101198.75;5003654;28;20072;-75
2023/09/13 05:25:49;;;;;;;91.55;43.30;;;;;;;18.17;100.00;101204.09;5011990;28;20457;-75
2023/09/13 05:28:16;;;;;;;87.75;43.58;;;;;;;18.19;100.00;101204.84;5005585;28;20667;-75
2023/09/13 05:30:49;;;;;;;87.45;43.35;;;;;;;18.19;100.00;101209.34;4997253;28;20065;-72
2023/09/13 05:33:16;;;;;;;86.75;42.47;;;;;;;18.19;100.00;101212.88;4999184;28;20080;-72
2023/09/13 05:35:43;;;;;;;85.07;41.00;;;;;;;18.20;100.00;101219.06;4996285;28;20782;-72
2023/09/13 05:38:10;;;;;;;91.55;44.17;;;;;;;18.21;100.00;101218.13;5011065;28;20042;-72
2023/09/13 05:40:37;;;;;;;90.88;42.40;;;;;;;18.21;100.00;101224.31;5025641;28;20050;-72
2023/09/13 05:43:04;;;;;;;82.13;42.25;;;;;;;18.21;100.00;101216.31;4995392;28;20048;-72
2023/09/13 05:45:31;;;;;;;77.63;40.30;;;;;;;18.22;100.00;101222.50;4995790;28;20048;-72
2023/09/13 05:47:59;;;;;;;78.20;41.60;;;;;;;18.22;100.00;101218.03;4988912;28;20138;-72
2023/09/13 05:50:27;;;;;;;84.55;41.88;;;;;;;18.23;100.00;101221.56;4997466;28;21240;-72
2023/09/13 05:52:55;;;;;;;78.05;41.47;;;;;;;18.23;100.00;101218.88;5002589;28;20052;-73
2023/09/13 05:55:22;;;;;;;74.32;37.53;;;;;;;18.24;100.00;101224.16;4999950;28;20577;-72
2023/09/13 05:57:52;;;;;;;76.25;41.17;;;;;;;18.26;100.00;101234.72;5025019;28;20045;-72
2023/09/13 06:00:19;;;;;;;76.93;39.53;;;;;;;18.27;100.00;101244.47;4993219;28;20580;-72
2023/09/13 06:02:46;;;;;;;73.70;38.20;;;;;;;18.31;100.00;101240.69;4997576;28;20450;-72
2023/09/13 06:05:14;;;;;;;75.43;40.13;;;;;;;18.35;100.00;101238.69;5015447;28;20501;-72
2023/09/13 06:07:42;;;;;;;74.35;37.50;;;;;;;18.38;100.00;101238.50;4999580;28;20148;-72
2023/09/13 06:10:11;;;;;;;71.30;37.13;;;;;;;18.42;100.00;101235.56;5002528;28;20054;-72
2023/09/13 06:12:38;;;;;;;74.13;37.47;;;;;;;18.47;100.00;101246.84;5004176;28;20049;-72
2023/09/13 06:15:07;;;;;;;68.65;37.55;;;;;;;18.50;100.00;101247.63;5019682;28;20898;-72
2023/09/13 06:17:36;;;;;;;74.00;38.22;;;;;;;18.53;100.00;101267.00;5018222;28;20045;-72
2023/09/13 06:20:05;;;;;;;71.80;39.30;;;;;;;18.57;100.00;101259.69;5003879;28;20033;-71
2023/09/13 06:22:33;;;;;;;82.40;39.53;;;;;;;18.59;100.00;101263.97;5002939;28;20046;-72
2023/09/13 06:25:02;;;;;;;81.13;43.17;;;;;;;18.61;100.00;101272.75;5017782;28;20112;-72
2023/09/13 06:27:37;;;;;;;79.07;39.83;;;;;;;18.65;100.00;101273.44;5011346;28;20048;-72
2023/09/13 06:30:05;;;;;;;75.90;41.00;;;;;;;18.65;100.00;101273.44;5020918;28;20054;-72
2023/09/13 06:32:33;;;;;;;67.32;38.30;;;;;;;18.65;100.00;101270.75;5006286;28;20125;-72
2023/09/13 06:35:11;;;;;;;68.75;37.75;;;;;;;18.66;100.00;101274.31;5016743;28;20577;-71
2023/09/13 06:37:44;;;;;;;69.28;39.05;;;;;;;18.65;100.00;101280.59;5011801;28;20494;-72
2023/09/13 06:40:15;;;;;;;78.40;39.10;;;;;;;18.66;100.00;101283.16;5013330;28;20066;-72
2023/09/13 06:42:43;;;;;;;68.22;37.85;;;;;;;18.65;100.00;101286.78;4995642;28;20042;-71
2023/09/13 06:45:27;;;;;;;66.57;37.88;;;;;;;18.68;100.00;101294.63;5001653;28;20173;-74
2023/09/13 06:47:57;;;;;;;69.47;37.38;;;;;;;18.71;100.00;101306.94;5004262;28;20042;-74
2023/09/13 06:50:26;;;;;;;64.47;37.30;;;;;;;18.72;100.00;101298.81;4985320;28;20166;-74
2023/09/13 06:53:14;;;;;;;59.70;36.20;;;;;;;18.76;100.00;101310.22;5026820;28;20041;-73
2023/09/13 06:56:02;;;;;;;67.85;37.78;;;;;;;18.77;100.00;101309.28;4992884;28;20044;-73
2023/09/13 06:58:32;;;;;;;67.82;37.20;;;;;;;18.84;100.00;101312.44;4999215;28;20061;-73
2023/09/13 07:01:03;;;;;;;63.80;36.53;;;;;;;18.89;100.00;101305.03;4996535;28;20133;-73
2023/09/13 07:03:34;;;;;;;64.15;36.08;;;;;;;18.98;100.00;101311.66;5001595;28;20038;-73
2023/09/13 07:06:06;;;;;;;60.65;34.03;;;;;;;19.06;100.00;101309.41;4999385;28;20564;-73
2023/09/13 07:08:34;;;;;;;53.33;30.83;;;;;;;19.15;100.00;101314.22;4993995;28;20050;-73
2023/09/13 07:11:02;;;;;;;55.97;34.88;;;;;;;19.26;100.00;101316.25;5035049;28;20049;-73
2023/09/13 07:13:29;;;;;;;58.00;35.05;;;;;;;19.33;100.00;101320.25;5001288;28;20552;-73
2023/09/13 07:15:57;;;;;;;57.63;33.55;;;;;;;19.38;100.00;101318.19;4997364;28;20062;-73
2023/09/13 07:18:25;;;;;;;51.28;30.35;;;;;;;19.44;100.00;101319.63;4999543;28;20110;-73
2023/09/13 07:20:53;;;;;;;50.63;31.92;;;;;;;19.48;100.00;101326.53;5002471;28;20041;-73
2023/09/13 07:23:21;;;;;;;49.63;30.58;;;;;;;19.44;100.00;101327.66;5005122;28;20044;-73
2023/09/13 07:25:49;;;;;;;48.13;30.35;;;;;;;19.42;100.00;101326.88;5002554;28;20394;-73
2023/09/13 07:28:16;;;;;;;47.55;29.95;;;;;;;19.43;100.00;101327.75;5005340;28;20072;-73
2023/09/13 07:30:44;;;;;;;47.97;30.52;;;;;;;19.43;100.00;101325.94;5003693;28;20062;-73
2023/09/13 07:33:12;;;;;;;50.47;31.08;;;;;;;19.42;100.00;101329.56;5003639;28;20125;-73
2023/09/13 07:35:40;;;;;;;50.80;31.60;;;;;;;19.45;100.00;101333.84;5022417;28;20120;-73
2023/09/13 07:38:07;;;;;;;51.03;31.55;;;;;;;19.45;100.00;101326.69;5025433;28;20049;-73
2023/09/13 07:40:37;;;;;;;56.58;32.20;;;;;;;19.46;100.00;101322.19;5024000;28;20122;-73
2023/09/13 07:43:08;;;;;;;46.85;31.77;;;;;;;19.50;100.00;101324.59;5023209;28;20047;-73
2023/09/13 07:45:36;;;;;;;51.70;31.85;;;;;;;19.62;100.00;101330.16;5023900;28;20509;-73
2023/09/13 07:48:03;;;;;;;51.45;31.95;;;;;;;19.69;100.00;101324.34;5039783;28;20535;-73
2023/09/13 07:50:40;;;;;;;43.85;28.40;;;;;;;19.72;100.00;101323.28;5023303;28;20049;-73
2023/09/13 07:53:12;;;;;;;47.83;30.52;;;;;;;19.68;100.00;101322.63;5005161;28;20505;-73
2023/09/13 07:55:40;;;;;;;44.72;30.23;;;;;;;19.57;100.00;101383.91;5000377;28;20044;-74
2023/09/13 07:58:08;;;;;;;10.15;7.32;;;;;;;19.24;100.00;101393.84;5000702;28;20126;-76
2023/09/13 08:00:36;;;;;;;6.43;3.50;;;;;;;18.47;99.11;101400.81;4987180;28;20469;-77
2023/09/13 08:03:04;;;;;;;3.17;1.95;;;;;;;17.72;99.75;101397.66;4989737;28;20151;-76
2023/09/13 08:05:31;;;;;;;2.42;1.00;;;;;;;17.13;99.79;101404.09;5004492;28;20069;-76
2023/09/13 08:07:59;;;;;;;1.95;0.90;;;;;;;16.72;100.00;101423.78;5009613;28;20140;-75
2023/09/13 08:10:26;;;;;;;2.25;1.02;;;;;;;16.45;100.00;101418.78;5006382;28;20046;-75
2023/09/13 08:12:54;;;;;;;2.58;0.63;;;;;;;16.38;100.00;101429.78;5007894;28;20042;-74
2023/09/13 08:15:21;;;;;;;1.90;0.90;;;;;;;16.35;100.00;101437.91;5008766;28;20046;-74
2023/09/13 08:18:04;;;;;;;3.20;0.68;;;;;;;16.26;100.00;101439.16;5009101;28;20053;-74
2023/09/13 08:20:31;;;;;;;1.05;0.60;;;;;;;16.13;100.00;101437.06;5007157;28;20080;-73
2023/09/13 08:22:58;;;;;;;1.05;0.60;;;;;;;16.11;100.00;101446.03;5007974;28;20045;-73
2023/09/13 08:25:26;;;;;;;1.50;0.55;;;;;;;16.21;100.00;101450.03;5004431;28;20119;-73
2023/09/13 08:27:54;;;;;;;1.55;0.60;;;;;;;16.42;100.00;101458.84;5007938;28;20042;-73
2023/09/13 08:30:21;;;;;;;1.77;0.52;;;;;;;16.54;100.00;101457.41;5008431;28;20062;-72
2023/09/13 08:32:48;;;;;;;1.20;0.40;;;;;;;16.70;100.00;101456.69;5006427;28;20045;-73
2023/09/13 08:35:15;;;;;;;1.20;0.50;;;;;;;16.69;100.00;101463.84;5018391;28;20422;-72
2023/09/13 08:37:42;;;;;;;1.52;0.50;;;;;;;16.83;100.00;101470.34;5036946;28;20053;-74
2023/09/13 08:40:11;;;;;;;1.10;0.50;;;;;;;16.88;99.65;101477.16;5022193;28;20037;-73
2023/09/13 08:42:41;;;;;;;1.63;0.50;;;;;;;16.86;99.99;101483.47;5021467;28;20638;-74
2023/09/13 08:45:09;;;;;;;2.30;0.82;;;;;;;16.79;100.00;101498.88;5003465;28;20050;-73
2023/09/13 08:47:41;;;;;;;1.67;0.50;;;;;;;16.72;99.23;101502.75;4993351;28;20042;-74
2023/09/13 08:50:28;;;;;;;1.25;0.52;;;;;;;16.71;99.12;101511.66;5004477;28;20053;-73
2023/09/13 08:53:03;;;;;;;2.17;0.50;;;;;;;16.74;98.64;101514.22;5006215;28;20284;-73
2023/09/13 08:55:32;;;;;;;2.28;0.77;;;;;;;16.85;98.41;101521.69;4996899;28;20546;-74
2023/09/13 08:58:00;;;;;;;1.73;0.70;;;;;;;16.89;98.43;101526.81;5000649;28;20057;-74
2023/09/13 09:00:33;;;;;;;0.98;0.65;;;;;;;16.99;98.28;101535.28;5037615;28;20042;-73
2023/09/13 09:03:05;;;;;;;1.50;0.70;;;;;;;17.19;97.21;101523.69;5006185;28;20115;-73
2023/09/13 09:05:35;;;;;;;1.30;0.60;;;;;;;17.42;94.92;101540.38;5009538;28;20038;-73
2023/09/13 09:08:04;;;;;;;1.15;0.60;;;;;;;17.64;92.79;101537.53;5002976;28;20133;-74
2023/09/13 09:10:32;;;;;;;1.23;0.50;;;;;;;17.72;91.46;101545.16;5016335;28;20639;-73
2023/09/13 09:13:02;;;;;;;1.02;0.52;;;;;;;17.75;91.82;101541.50;4987627;28;20053;-74
2023/09/13 09:15:35;;;;;;;1.20;0.57;;;;;;;17.88;89.76;101553.25;5011524;28;20054;-74
2023/09/13 09:18:09;;;;;;;1.00;0.50;;;;;;;17.92;88.73;101561.94;5003047;28;20045;-74
2023/09/13 09:20:38;;;;;;;0.90;0.50;;;;;;;17.98;89.48;101569.69;5007273;28;20041;-75
2023/09/13 09:23:08;;;;;;;1.13;0.50;;;;;;;18.12;89.07;101575.19;5004924;28;20501;-74
2023/09/13 09:25:39;;;;;;;1.23;0.50;;;;;;;18.22;88.11;101585.41;5037029;28;20121;-73
2023/09/13 09:28:06;;;;;;;2.78;0.60;;;;;;;18.26;87.48;101584.31;5006596;28;20054;-74
2023/09/13 09:30:33;;;;;;;1.20;0.50;;;;;;;18.30;86.79;101588.56;5005273;28;20065;-74
2023/09/13 09:33:06;;;;;;;1.13;0.57;;;;;;;18.35;85.05;101596.34;5019365;28;20359;-74
2023/09/13 09:35:35;;;;;;;1.70;0.70;;;;;;;18.22;87.78;101593.41;5012136;28;20041;-74
2023/09/13 09:38:03;;;;;;;2.35;0.65;;;;;;;18.22;85.24;101602.28;5014249;28;20041;-73
2023/09/13 09:40:37;;;;;;;1.48;0.63;;;;;;;18.21;84.77;101607.72;5004832;28;20585;-73
2023/09/13 09:43:04;;;;;;;1.35;0.50;;;;;;;18.17;85.52;101612.31;4986694;28;20071;-73
2023/09/13 09:45:32;;;;;;;2.15;0.63;;;;;;;18.12;87.09;101607.22;5020300;28;20457;-73
2023/09/13 09:48:00;;;;;;;2.47;0.60;;;;;;;18.17;86.42;101609.66;5002226;28;20081;-74
2023/09/13 09:50:31;;;;;;;1.95;0.73;;;;;;;18.24;84.24;101612.88;5001999;28;20124;-74
2023/09/13 09:52:59;;;;;;;1.10;0.60;;;;;;;18.18;84.62;101605.19;4987967;28;20046;-74
2023/09/13 09:55:26;;;;;;;1.58;0.70;;;;;;;18.15;84.28;101608.88;5004133;28;20672;-74
2023/09/13 09:57:55;;;;;;;2.03;0.65;;;;;;;18.16;84.36;101613.28;5005564;28;20053;-74
2023/09/13 10:00:22;;;;;;;2.28;0.70;;;;;;;18.26;84.10;101616.34;4989686;28;20052;-74
2023/09/13 10:02:50;;;;;;;1.30;0.68;;;;;;;18.25;84.41;101617.28;5005659;28;20422;-75
2023/09/13 10:05:18;;;;;;;1.58;0.70;;;;;;;18.38;85.50;101614.84;4992433;28;20053;-75
2023/09/13 10:07:57;;;;;;;0.95;0.45;;;;;;;18.73;81.87;101618.34;4996132;28;20140;-75
2023/09/13 10:10:30;;;;;;;1.55;0.70;;;;;;;18.81;83.07;101617.94;5011914;28;20046;-75
2023/09/13 10:12:57;;;;;;;1.42;0.50;;;;;;;18.92;83.08;101617.41;4998552;28;20046;-74
2023/09/13 10:15:25;;;;;;;0.95;0.40;;;;;;;19.08;79.65;101615.66;4999177;28;20052;-74
2023/09/13 10:17:55;;;;;;;0.52;0.43;;;;;;;19.08;81.08;101622.78;5004346;28;20048;-74
2023/09/13 10:20:24;;;;;;;0.70;0.40;;;;;;;19.20;77.59;101621.28;5005075;28;20829;-75
2023/09/13 10:22:56;;;;;;;0.88;0.65;;;;;;;19.08;78.92;101618.31;5006304;28;20038;-74
2023/09/13 10:25:29;;;;;;;1.60;0.57;;;;;;;19.18;80.25;101613.31;5002906;28;20469;-73
2023/09/13 10:28:01;;;;;;;1.80;0.60;;;;;;;19.29;79.96;101595.84;5005886;28;20038;-73
2023/09/13 10:30:33;;;;;;;1.25;0.52;;;;;;;19.38;77.13;101606.06;5005762;28;20053;-74
2023/09/13 10:33:03;;;;;;;1.38;0.47;;;;;;;19.37;76.96;101615.00;5003693;28;20050;-73
2023/09/13 10:35:38;;;;;;;2.17;0.50;;;;;;;19.46;75.42;101627.00;5004848;28;20042;-73
2023/09/13 10:38:26;;;;;;;;;;;;;;;19.48;75.76;101634.00;5006696;28;20530;-74
2023/09/13 10:41:03;;;;;;;1.75;0.70;;;;;;;19.51;76.86;101633.81;5004640;28;20896;-75
2023/09/13 10:43:32;;;;;;;2.40;0.43;;;;;;;19.60;76.15;101647.63;5001979;28;20084;-75
2023/09/13 10:46:02;;;;;;;2.15;0.60;;;;;;;19.81;78.00;101643.72;5004170;28;20089;-75
2023/09/13 10:48:31;;;;;;;3.00;0.60;;;;;;;20.11;78.08;101647.47;5005487;28;20049;-75
2023/09/13 10:51:00;;;;;;;1.85;0.70;;;;;;;20.43;74.44;101644.72;5004526;28;20523;-75
2023/09/13 10:53:27;;;;;;;0.80;0.40;;;;;;;20.54;74.70;101650.28;5019039;28;20046;-75
2023/09/13 10:55:54;;;;;;;1.02;0.40;;;;;;;20.55;74.69;101656.50;5008726;28;20651;-75
2023/09/13 10:58:23;;;;;;;0.90;0.50;;;;;;;20.61;72.40;101659.69;5011719;28;20038;-75
2023/09/13 11:00:54;;;;;;;2.65;0.60;;;;;;;20.63;70.50;101671.16;5004101;28;20045;-75
2023/09/13 11:03:22;;;;;;;0.90;0.50;;;;;;;20.44;73.60;101676.75;5005236;28;20410;-75
2023/09/13 11:05:54;;;;;;;0.68;0.30;;;;;;;20.44;72.38;101673.22;4995170;28;20103;-75
2023/09/13 11:08:31;;;;;;;2.22;0.50;;;;;;;20.43;69.64;101674.16;4994835;28;20089;-75
2023/09/13 11:11:17;;;;;;;1.67;0.50;;;;;;;20.20;71.65;101675.47;5006246;28;20050;-75
2023/09/13 11:13:50;;;;;;;2.28;0.77;;;;;;;20.08;71.83;101679.75;5002013;28;20069;-75
2023/09/13 11:16:17;;;;;;;1.48;0.60;;;;;;;20.15;70.97;101683.78;5006529;28;20125;-76
2023/09/13 11:18:51;;;;;;;1.42;0.40;;;;;;;20.39;68.65;101689.56;5007859;28;20441;-74
2023/09/13 11:21:52;;;;;;;2.92;0.98;;;;;;;20.35;70.09;101689.81;5008485;28;20624;-74